Chicago, IL (60637)

12:03 PM CST on March 06, 2015 (GMT -0600)
U.S. Cellular Field | Change Station
CLOSE
Current Station
Personal Weather Station
Location: Chicago, IL
Elevation: 594 ft
Nearby Weather Stations

Elev 594 ft 41.83 °N, 87.64 °W | Updated 4 seconds ago

Partly Cloudy
Partly Cloudy
23.0 °F
Feels Like 13 °F
N
8.9
Wind Variable Wind from West
Gusts 18.0 mph

Today
High -- | Low -- °F
--% Chance of Precip.
Yesterday
High -- | Low -- °F
Precip. -- in
6:17 AM 5:46 PM
Full, 99% visible
Pressure 30.39 in
Visibility 10.0 miles
Clouds Scattered Clouds 25000 ft
Windchill 13 °F
Dew Point 7 °F
Humidity 49%
Rainfall in
Snow Depth Not available.
UV 5 out of 12
Pollen .20 out of 12
Air Quality Not available.
Flu Activity Not available.
METAR KMDW 061753Z COR 19015G20KT 10SM SCT250 M06/M13 A3033 RMK AO2 SLP291 4/004 T10611133 58033 $

More Conditions Fewer Conditions

Pressure 30.39 in
Visibility 10.0 miles
Clouds Scattered Clouds 25000 ft
Windchill 13 °F
Dew Point 7 °F
Humidity 49%
Rainfall in
Snow Depth Not available.
UV 5 out of 12
Pollen .20 out of 12
Air Quality Not available.
Flu Activity Not available.
METAR KMDW 061753Z COR 19015G20KT 10SM SCT250 M06/M13 A3033 RMK AO2 SLP291 4/004 T10611133 58033 $

More Conditions Fewer Conditions

10-Day Weather Forecast

Almanac

Astronomy

Mar. 06, 2015 Rise Set
Actual Time
Civil Twilight
Nautical Twilight
Astronomical Twilight
Moon
Length of Visible Light
Length of Day
Tomorrow will be .
, % of the Moon is Illuminated

Today's Extremes

State Highs State Lows

Community

WunderPhotos

Upload Photos

1,803,357 photos uploaded!

WunderBlogs® & News

Nearby

Air Quality

  Air Quality AQ Index Pollutant
Not available.

Snow Depth

Station Depth Elevation

Earthquake Activity

City Distance Mag. Time & Date
Minimum magnitude displayed is 2.5.

Coastal Water Temperatures

Place Temperature

Nearby Weather Stations